sensor_id;sensor_type;location;lat;lon;timestamp;P1;durP1;ratioP1;P2;durP2;ratioP2
10469;SDS011;5282;47.052;15.458;2023-05-17T00:01:18;0.60;;;0.20;;
10469;SDS011;5282;47.052;15.458;2023-05-17T00:03:46;0.20;;;0.20;;
10469;SDS011;5282;47.052;15.458;2023-05-17T00:06:13;0.10;;;0.10;;
10469;SDS011;5282;47.052;15.458;2023-05-17T00:08:40;0.13;;;0.13;;
10469;SDS011;5282;47.052;15.458;2023-05-17T00:11:07;0.10;;;0.10;;
10469;SDS011;5282;47.052;15.458;2023-05-17T00:13:33;0.20;;;0.20;;
10469;SDS011;5282;47.052;15.458;2023-05-17T00:16:02;0.20;;;0.20;;
10469;SDS011;5282;47.052;15.458;2023-05-17T00:18:31;0.20;;;0.10;;
10469;SDS011;5282;47.052;15.458;2023-05-17T00:20:59;0.10;;;0.10;;
10469;SDS011;5282;47.052;15.458;2023-05-17T00:23:26;0.10;;;0.10;;
10469;SDS011;5282;47.052;15.458;2023-05-17T00:25:53;0.20;;;0.20;;
10469;SDS011;5282;47.052;15.458;2023-05-17T00:28:20;0.10;;;0.10;;
10469;SDS011;5282;47.052;15.458;2023-05-17T00:30:46;0.20;;;0.20;;
10469;SDS011;5282;47.052;15.458;2023-05-17T00:33:13;0.20;;;0.20;;
10469;SDS011;5282;47.052;15.458;2023-05-17T00:35:40;0.00;;;0.00;;
10469;SDS011;5282;47.052;15.458;2023-05-17T00:38:08;0.10;;;0.10;;
10469;SDS011;5282;47.052;15.458;2023-05-17T00:40:35;0.10;;;0.10;;
10469;SDS011;5282;47.052;15.458;2023-05-17T00:43:02;0.10;;;0.10;;
10469;SDS011;5282;47.052;15.458;2023-05-17T00:45:29;0.03;;;0.03;;
10469;SDS011;5282;47.052;15.458;2023-05-17T00:47:58;0.10;;;0.10;;
10469;SDS011;5282;47.052;15.458;2023-05-17T00:50:25;0.10;;;0.10;;
10469;SDS011;5282;47.052;15.458;2023-05-17T00:52:52;0.10;;;0.10;;
10469;SDS011;5282;47.052;15.458;2023-05-17T00:55:22;0.30;;;0.10;;
10469;SDS011;5282;47.052;15.458;2023-05-17T00:57:49;0.83;;;0.13;;
10469;SDS011;5282;47.052;15.458;2023-05-17T01:00:16;0.13;;;0.13;;
10469;SDS011;5282;47.052;15.458;2023-05-17T01:02:44;0.00;;;0.00;;
10469;SDS011;5282;47.052;15.458;2023-05-17T01:05:12;0.10;;;0.10;;
10469;SDS011;5282;47.052;15.458;2023-05-17T01:07:39;0.00;;;0.00;;
10469;SDS011;5282;47.052;15.458;2023-05-17T01:10:07;0.17;;;0.17;;
10469;SDS011;5282;47.052;15.458;2023-05-17T01:12:40;0.10;;;0.10;;
10469;SDS011;5282;47.052;15.458;2023-05-17T01:15:17;0.20;;;0.20;;
10469;SDS011;5282;47.052;15.458;2023-05-17T01:17:49;0.20;;;0.20;;
10469;SDS011;5282;47.052;15.458;2023-05-17T01:20:27;0.10;;;0.10;;
10469;SDS011;5282;47.052;15.458;2023-05-17T01:23:02;0.10;;;0.10;;
10469;SDS011;5282;47.052;15.458;2023-05-17T01:25:48;0.47;;;0.20;;
10469;SDS011;5282;47.052;15.458;2023-05-17T01:28:20;0.00;;;0.00;;
10469;SDS011;5282;47.052;15.458;2023-05-17T01:30:51;0.10;;;0.10;;
10469;SDS011;5282;47.052;15.458;2023-05-17T01:33:19;0.10;;;0.10;;
10469;SDS011;5282;47.052;15.458;2023-05-17T01:35:47;0.10;;;0.10;;
10469;SDS011;5282;47.052;15.458;2023-05-17T01:38:14;0.10;;;0.10;;
10469;SDS011;5282;47.052;15.458;2023-05-17T01:40:43;0.10;;;0.10;;
10469;SDS011;5282;47.052;15.458;2023-05-17T01:43:16;0.00;;;0.00;;
10469;SDS011;5282;47.052;15.458;2023-05-17T01:45:54;0.10;;;0.10;;
10469;SDS011;5282;47.052;15.458;2023-05-17T01:48:27;0.10;;;0.10;;
10469;SDS011;5282;47.052;15.458;2023-05-17T01:50:59;0.87;;;0.10;;
10469;SDS011;5282;47.052;15.458;2023-05-17T01:53:28;0.10;;;0.10;;
10469;SDS011;5282;47.052;15.458;2023-05-17T01:56:00;1.20;;;0.10;;
10469;SDS011;5282;47.052;15.458;2023-05-17T01:58:31;0.20;;;0.20;;
10469;SDS011;5282;47.052;15.458;2023-05-17T02:01:06;0.10;;;0.10;;
10469;SDS011;5282;47.052;15.458;2023-05-17T02:03:34;1.03;;;0.20;;
10469;SDS011;5282;47.052;15.458;2023-05-17T02:06:01;0.10;;;0.10;;
10469;SDS011;5282;47.052;15.458;2023-05-17T02:08:28;0.03;;;0.03;;
10469;SDS011;5282;47.052;15.458;2023-05-17T02:10:55;0.13;;;0.13;;
10469;SDS011;5282;47.052;15.458;2023-05-17T02:13:22;0.10;;;0.10;;
10469;SDS011;5282;47.052;15.458;2023-05-17T02:15:51;0.20;;;0.20;;
10469;SDS011;5282;47.052;15.458;2023-05-17T02:18:18;0.10;;;0.10;;
10469;SDS011;5282;47.052;15.458;2023-05-17T02:20:46;0.10;;;0.10;;
10469;SDS011;5282;47.052;15.458;2023-05-17T02:23:13;0.10;;;0.10;;
10469;SDS011;5282;47.052;15.458;2023-05-17T02:25:40;0.10;;;0.10;;
10469;SDS011;5282;47.052;15.458;2023-05-17T02:28:07;0.10;;;0.10;;
10469;SDS011;5282;47.052;15.458;2023-05-17T02:30:34;0.17;;;0.13;;
10469;SDS011;5282;47.052;15.458;2023-05-17T02:33:02;0.10;;;0.10;;
10469;SDS011;5282;47.052;15.458;2023-05-17T02:35:30;0.10;;;0.10;;
10469;SDS011;5282;47.052;15.458;2023-05-17T02:37:57;0.10;;;0.10;;
10469;SDS011;5282;47.052;15.458;2023-05-17T02:40:24;0.13;;;0.13;;
10469;SDS011;5282;47.052;15.458;2023-05-17T02:42:50;0.20;;;0.20;;
10469;SDS011;5282;47.052;15.458;2023-05-17T02:45:19;0.63;;;0.10;;
10469;SDS011;5282;47.052;15.458;2023-05-17T02:47:46;0.00;;;0.00;;
10469;SDS011;5282;47.052;15.458;2023-05-17T02:50:14;0.10;;;0.10;;
10469;SDS011;5282;47.052;15.458;2023-05-17T02:52:41;0.10;;;0.10;;
10469;SDS011;5282;47.052;15.458;2023-05-17T02:55:08;0.00;;;0.00;;
10469;SDS011;5282;47.052;15.458;2023-05-17T02:57:35;0.20;;;0.20;;
10469;SDS011;5282;47.052;15.458;2023-05-17T03:00:02;0.20;;;0.20;;
10469;SDS011;5282;47.052;15.458;2023-05-17T03:02:31;0.47;;;0.10;;
10469;SDS011;5282;47.052;15.458;2023-05-17T03:04:58;0.20;;;0.20;;
10469;SDS011;5282;47.052;15.458;2023-05-17T03:07:26;0.10;;;0.10;;
10469;SDS011;5282;47.052;15.458;2023-05-17T03:09:53;0.10;;;0.10;;
10469;SDS011;5282;47.052;15.458;2023-05-17T03:12:20;0.00;;;0.00;;
10469;SDS011;5282;47.052;15.458;2023-05-17T03:14:46;0.17;;;0.10;;
10469;SDS011;5282;47.052;15.458;2023-05-17T03:17:13;0.10;;;0.10;;
10469;SDS011;5282;47.052;15.458;2023-05-17T03:19:40;0.87;;;0.17;;
10469;SDS011;5282;47.052;15.458;2023-05-17T03:22:07;0.10;;;0.10;;
10469;SDS011;5282;47.052;15.458;2023-05-17T03:24:35;0.23;;;0.20;;
10469;SDS011;5282;47.052;15.458;2023-05-17T03:27:02;0.10;;;0.10;;
10469;SDS011;5282;47.052;15.458;2023-05-17T03:29:29;0.20;;;0.20;;
10469;SDS011;5282;47.052;15.458;2023-05-17T03:31:55;0.10;;;0.10;;
10469;SDS011;5282;47.052;15.458;2023-05-17T03:34:22;0.20;;;0.20;;
10469;SDS011;5282;47.052;15.458;2023-05-17T03:36:49;0.20;;;0.20;;
10469;SDS011;5282;47.052;15.458;2023-05-17T03:39:16;0.10;;;0.10;;
10469;SDS011;5282;47.052;15.458;2023-05-17T03:41:44;0.93;;;0.10;;
10469;SDS011;5282;47.052;15.458;2023-05-17T03:44:11;0.10;;;0.10;;
10469;SDS011;5282;47.052;15.458;2023-05-17T03:46:38;0.77;;;0.10;;
10469;SDS011;5282;47.052;15.458;2023-05-17T03:49:05;0.10;;;0.10;;
10469;SDS011;5282;47.052;15.458;2023-05-17T03:51:31;0.20;;;0.20;;
10469;SDS011;5282;47.052;15.458;2023-05-17T03:53:59;0.60;;;0.20;;
10469;SDS011;5282;47.052;15.458;2023-05-17T03:56:26;0.10;;;0.10;;
10469;SDS011;5282;47.052;15.458;2023-05-17T03:58:54;0.20;;;0.20;;
10469;SDS011;5282;47.052;15.458;2023-05-17T04:01:21;0.20;;;0.20;;
10469;SDS011;5282;47.052;15.458;2023-05-17T04:03:48;0.10;;;0.10;;
10469;SDS011;5282;47.052;15.458;2023-05-17T04:06:15;0.10;;;0.10;;
10469;SDS011;5282;47.052;15.458;2023-05-17T04:08:42;0.10;;;0.10;;
10469;SDS011;5282;47.052;15.458;2023-05-17T04:11:09;0.33;;;0.20;;
10469;SDS011;5282;47.052;15.458;2023-05-17T04:13:38;0.10;;;0.10;;
10469;SDS011;5282;47.052;15.458;2023-05-17T04:16:08;0.10;;;0.10;;
10469;SDS011;5282;47.052;15.458;2023-05-17T04:18:37;0.10;;;0.10;;
10469;SDS011;5282;47.052;15.458;2023-05-17T04:21:04;0.10;;;0.10;;
10469;SDS011;5282;47.052;15.458;2023-05-17T04:23:31;0.20;;;0.20;;
10469;SDS011;5282;47.052;15.458;2023-05-17T04:25:58;0.20;;;0.20;;
10469;SDS011;5282;47.052;15.458;2023-05-17T04:28:25;0.10;;;0.10;;
10469;SDS011;5282;47.052;15.458;2023-05-17T04:30:52;0.10;;;0.10;;
10469;SDS011;5282;47.052;15.458;2023-05-17T04:33:22;1.13;;;0.20;;
10469;SDS011;5282;47.052;15.458;2023-05-17T04:35:49;0.13;;;0.10;;
10469;SDS011;5282;47.052;15.458;2023-05-17T04:38:19;0.10;;;0.10;;
10469;SDS011;5282;47.052;15.458;2023-05-17T04:40:46;0.10;;;0.10;;
10469;SDS011;5282;47.052;15.458;2023-05-17T04:43:13;0.30;;;0.30;;
10469;SDS011;5282;47.052;15.458;2023-05-17T04:45:40;0.20;;;0.20;;
10469;SDS011;5282;47.052;15.458;2023-05-17T04:48:08;0.30;;;0.30;;
10469;SDS011;5282;47.052;15.458;2023-05-17T04:50:36;0.30;;;0.30;;
10469;SDS011;5282;47.052;15.458;2023-05-17T04:53:03;0.30;;;0.30;;
10469;SDS011;5282;47.052;15.458;2023-05-17T04:55:29;0.20;;;0.20;;
10469;SDS011;5282;47.052;15.458;2023-05-17T04:57:56;0.20;;;0.20;;
10469;SDS011;5282;47.052;15.458;2023-05-17T05:00:23;0.70;;;0.20;;
10469;SDS011;5282;47.052;15.458;2023-05-17T05:02:53;0.30;;;0.30;;
10469;SDS011;5282;47.052;15.458;2023-05-17T05:05:20;0.33;;;0.33;;
10469;SDS011;5282;47.052;15.458;2023-05-17T05:07:50;0.40;;;0.40;;
10469;SDS011;5282;47.052;15.458;2023-05-17T05:10:19;0.50;;;0.50;;
10469;SDS011;5282;47.052;15.458;2023-05-17T05:12:46;0.60;;;0.60;;
10469;SDS011;5282;47.052;15.458;2023-05-17T05:15:13;0.97;;;0.50;;
10469;SDS011;5282;47.052;15.458;2023-05-17T05:17:41;0.87;;;0.87;;
10469;SDS011;5282;47.052;15.458;2023-05-17T05:20:08;0.40;;;0.40;;
10469;SDS011;5282;47.052;15.458;2023-05-17T05:22:36;0.40;;;0.40;;
10469;SDS011;5282;47.052;15.458;2023-05-17T05:25:04;0.40;;;0.40;;
10469;SDS011;5282;47.052;15.458;2023-05-17T05:27:32;0.37;;;0.20;;
10469;SDS011;5282;47.052;15.458;2023-05-17T05:30:00;0.10;;;0.10;;
10469;SDS011;5282;47.052;15.458;2023-05-17T05:32:27;0.10;;;0.10;;
10469;SDS011;5282;47.052;15.458;2023-05-17T05:34:54;0.40;;;0.40;;
10469;SDS011;5282;47.052;15.458;2023-05-17T05:37:22;0.40;;;0.20;;
10469;SDS011;5282;47.052;15.458;2023-05-17T05:39:49;0.20;;;0.20;;
10469;SDS011;5282;47.052;15.458;2023-05-17T05:42:18;0.10;;;0.10;;
10469;SDS011;5282;47.052;15.458;2023-05-17T05:44:45;0.53;;;0.20;;
10469;SDS011;5282;47.052;15.458;2023-05-17T05:47:11;0.20;;;0.20;;
10469;SDS011;5282;47.052;15.458;2023-05-17T05:49:38;0.10;;;0.10;;
10469;SDS011;5282;47.052;15.458;2023-05-17T05:52:05;0.50;;;0.20;;
10469;SDS011;5282;47.052;15.458;2023-05-17T05:54:32;0.20;;;0.20;;
10469;SDS011;5282;47.052;15.458;2023-05-17T05:56:59;0.30;;;0.27;;
10469;SDS011;5282;47.052;15.458;2023-05-17T05:59:27;0.20;;;0.20;;
10469;SDS011;5282;47.052;15.458;2023-05-17T06:01:54;0.30;;;0.30;;
10469;SDS011;5282;47.052;15.458;2023-05-17T06:04:21;0.10;;;0.10;;
10469;SDS011;5282;47.052;15.458;2023-05-17T06:06:50;3.00;;;0.23;;
10469;SDS011;5282;47.052;15.458;2023-05-17T06:09:19;0.10;;;0.10;;
10469;SDS011;5282;47.052;15.458;2023-05-17T06:11:46;0.30;;;0.20;;
10469;SDS011;5282;47.052;15.458;2023-05-17T06:14:13;1.07;;;0.17;;
10469;SDS011;5282;47.052;15.458;2023-05-17T06:16:41;0.20;;;0.20;;
10469;SDS011;5282;47.052;15.458;2023-05-17T06:19:08;0.30;;;0.30;;
10469;SDS011;5282;47.052;15.458;2023-05-17T06:21:35;0.30;;;0.30;;
10469;SDS011;5282;47.052;15.458;2023-05-17T06:24:02;0.43;;;0.43;;
10469;SDS011;5282;47.052;15.458;2023-05-17T06:26:29;0.30;;;0.30;;
10469;SDS011;5282;47.052;15.458;2023-05-17T06:28:56;0.20;;;0.20;;
10469;SDS011;5282;47.052;15.458;2023-05-17T06:31:23;0.53;;;0.20;;
10469;SDS011;5282;47.052;15.458;2023-05-17T06:33:52;0.10;;;0.10;;
10469;SDS011;5282;47.052;15.458;2023-05-17T06:36:18;0.13;;;0.13;;
10469;SDS011;5282;47.052;15.458;2023-05-17T06:38:45;0.20;;;0.20;;
10469;SDS011;5282;47.052;15.458;2023-05-17T06:41:14;0.20;;;0.20;;
10469;SDS011;5282;47.052;15.458;2023-05-17T06:43:42;0.20;;;0.20;;
10469;SDS011;5282;47.052;15.458;2023-05-17T06:46:08;0.20;;;0.20;;
10469;SDS011;5282;47.052;15.458;2023-05-17T06:48:35;0.10;;;0.10;;
10469;SDS011;5282;47.052;15.458;2023-05-17T06:51:03;0.30;;;0.30;;
10469;SDS011;5282;47.052;15.458;2023-05-17T06:53:30;0.20;;;0.20;;
10469;SDS011;5282;47.052;15.458;2023-05-17T06:55:57;0.10;;;0.10;;
10469;SDS011;5282;47.052;15.458;2023-05-17T06:58:26;0.10;;;0.10;;
10469;SDS011;5282;47.052;15.458;2023-05-17T07:00:53;0.10;;;0.10;;
10469;SDS011;5282;47.052;15.458;2023-05-17T07:03:25;0.10;;;0.10;;
10469;SDS011;5282;47.052;15.458;2023-05-17T07:05:52;0.27;;;0.27;;
10469;SDS011;5282;47.052;15.458;2023-05-17T07:08:20;0.10;;;0.10;;
10469;SDS011;5282;47.052;15.458;2023-05-17T07:10:49;0.10;;;0.10;;
10469;SDS011;5282;47.052;15.458;2023-05-17T07:13:16;0.10;;;0.10;;
10469;SDS011;5282;47.052;15.458;2023-05-17T07:15:43;0.40;;;0.10;;
10469;SDS011;5282;47.052;15.458;2023-05-17T07:18:10;0.70;;;0.10;;
10469;SDS011;5282;47.052;15.458;2023-05-17T07:20:38;0.10;;;0.10;;
10469;SDS011;5282;47.052;15.458;2023-05-17T07:23:05;0.17;;;0.17;;
10469;SDS011;5282;47.052;15.458;2023-05-17T07:25:33;0.20;;;0.20;;
10469;SDS011;5282;47.052;15.458;2023-05-17T07:28:03;0.23;;;0.23;;
10469;SDS011;5282;47.052;15.458;2023-05-17T07:30:30;1.33;;;0.40;;
10469;SDS011;5282;47.052;15.458;2023-05-17T07:32:57;0.20;;;0.20;;
10469;SDS011;5282;47.052;15.458;2023-05-17T07:35:24;0.10;;;0.10;;
10469;SDS011;5282;47.052;15.458;2023-05-17T07:37:51;0.30;;;0.30;;
10469;SDS011;5282;47.052;15.458;2023-05-17T07:40:20;0.40;;;0.23;;
10469;SDS011;5282;47.052;15.458;2023-05-17T07:42:48;0.43;;;0.30;;
10469;SDS011;5282;47.052;15.458;2023-05-17T07:45:16;0.30;;;0.10;;
10469;SDS011;5282;47.052;15.458;2023-05-17T07:47:44;0.20;;;0.20;;
10469;SDS011;5282;47.052;15.458;2023-05-17T07:50:11;0.20;;;0.20;;
10469;SDS011;5282;47.052;15.458;2023-05-17T07:52:37;0.37;;;0.20;;
10469;SDS011;5282;47.052;15.458;2023-05-17T07:55:05;0.30;;;0.20;;
10469;SDS011;5282;47.052;15.458;2023-05-17T07:57:33;0.20;;;0.20;;
10469;SDS011;5282;47.052;15.458;2023-05-17T08:00:01;0.30;;;0.30;;
10469;SDS011;5282;47.052;15.458;2023-05-17T08:02:28;0.17;;;0.17;;
10469;SDS011;5282;47.052;15.458;2023-05-17T08:04:55;0.10;;;0.10;;
10469;SDS011;5282;47.052;15.458;2023-05-17T08:07:21;0.20;;;0.20;;
10469;SDS011;5282;47.052;15.458;2023-05-17T08:09:48;0.77;;;0.20;;
10469;SDS011;5282;47.052;15.458;2023-05-17T08:12:17;0.10;;;0.10;;
10469;SDS011;5282;47.052;15.458;2023-05-17T08:14:46;0.10;;;0.10;;
10469;SDS011;5282;47.052;15.458;2023-05-17T08:17:15;0.23;;;0.23;;
10469;SDS011;5282;47.052;15.458;2023-05-17T08:19:42;0.67;;;0.30;;
10469;SDS011;5282;47.052;15.458;2023-05-17T08:22:09;0.20;;;0.20;;
10469;SDS011;5282;47.052;15.458;2023-05-17T08:24:36;0.10;;;0.10;;
10469;SDS011;5282;47.052;15.458;2023-05-17T08:27:03;0.30;;;0.30;;
10469;SDS011;5282;47.052;15.458;2023-05-17T08:29:30;0.30;;;0.30;;
10469;SDS011;5282;47.052;15.458;2023-05-17T08:31:57;0.30;;;0.30;;
10469;SDS011;5282;47.052;15.458;2023-05-17T08:34:25;0.30;;;0.30;;
10469;SDS011;5282;47.052;15.458;2023-05-17T08:36:52;0.30;;;0.30;;
10469;SDS011;5282;47.052;15.458;2023-05-17T08:39:19;1.10;;;0.20;;
10469;SDS011;5282;47.052;15.458;2023-05-17T08:41:45;0.40;;;0.20;;
10469;SDS011;5282;47.052;15.458;2023-05-17T08:44:12;0.27;;;0.20;;
10469;SDS011;5282;47.052;15.458;2023-05-17T08:46:41;0.20;;;0.20;;
10469;SDS011;5282;47.052;15.458;2023-05-17T08:49:09;0.20;;;0.20;;
10469;SDS011;5282;47.052;15.458;2023-05-17T08:51:41;0.63;;;0.40;;
10469;SDS011;5282;47.052;15.458;2023-05-17T08:54:09;0.30;;;0.30;;
10469;SDS011;5282;47.052;15.458;2023-05-17T08:56:36;0.20;;;0.20;;
10469;SDS011;5282;47.052;15.458;2023-05-17T08:59:07;0.70;;;0.40;;
10469;SDS011;5282;47.052;15.458;2023-05-17T09:01:35;0.53;;;0.30;;
10469;SDS011;5282;47.052;15.458;2023-05-17T09:04:03;0.57;;;0.30;;
10469;SDS011;5282;47.052;15.458;2023-05-17T09:06:32;0.20;;;0.20;;
10469;SDS011;5282;47.052;15.458;2023-05-17T09:09:01;0.20;;;0.20;;
10469;SDS011;5282;47.052;15.458;2023-05-17T09:11:31;0.20;;;0.20;;
10469;SDS011;5282;47.052;15.458;2023-05-17T09:13:59;1.90;;;0.27;;
10469;SDS011;5282;47.052;15.458;2023-05-17T09:16:27;0.57;;;0.50;;
10469;SDS011;5282;47.052;15.458;2023-05-17T09:18:55;0.40;;;0.40;;
10469;SDS011;5282;47.052;15.458;2023-05-17T09:21:22;0.73;;;0.30;;
10469;SDS011;5282;47.052;15.458;2023-05-17T09:23:50;0.60;;;0.17;;
10469;SDS011;5282;47.052;15.458;2023-05-17T09:26:19;0.63;;;0.30;;
10469;SDS011;5282;47.052;15.458;2023-05-17T09:28:47;0.30;;;0.30;;
10469;SDS011;5282;47.052;15.458;2023-05-17T09:31:14;0.30;;;0.30;;
10469;SDS011;5282;47.052;15.458;2023-05-17T09:33:42;0.20;;;0.20;;
10469;SDS011;5282;47.052;15.458;2023-05-17T09:36:16;0.10;;;0.10;;
10469;SDS011;5282;47.052;15.458;2023-05-17T09:38:50;0.40;;;0.40;;
10469;SDS011;5282;47.052;15.458;2023-05-17T09:41:19;0.30;;;0.30;;
10469;SDS011;5282;47.052;15.458;2023-05-17T09:43:50;0.30;;;0.30;;
10469;SDS011;5282;47.052;15.458;2023-05-17T09:46:18;0.20;;;0.20;;
10469;SDS011;5282;47.052;15.458;2023-05-17T09:48:45;0.10;;;0.10;;
10469;SDS011;5282;47.052;15.458;2023-05-17T09:51:19;0.30;;;0.30;;
10469;SDS011;5282;47.052;15.458;2023-05-17T09:53:57;0.27;;;0.27;;
10469;SDS011;5282;47.052;15.458;2023-05-17T09:56:27;0.20;;;0.20;;
10469;SDS011;5282;47.052;15.458;2023-05-17T09:58:55;0.30;;;0.30;;
10469;SDS011;5282;47.052;15.458;2023-05-17T10:01:24;0.30;;;0.30;;
10469;SDS011;5282;47.052;15.458;2023-05-17T10:03:53;0.30;;;0.30;;
10469;SDS011;5282;47.052;15.458;2023-05-17T10:06:21;0.20;;;0.20;;
10469;SDS011;5282;47.052;15.458;2023-05-17T10:08:50;0.97;;;0.40;;
10469;SDS011;5282;47.052;15.458;2023-05-17T10:11:20;0.30;;;0.30;;
10469;SDS011;5282;47.052;15.458;2023-05-17T10:13:54;0.20;;;0.20;;
10469;SDS011;5282;47.052;15.458;2023-05-17T10:16:31;0.20;;;0.20;;
10469;SDS011;5282;47.052;15.458;2023-05-17T10:18:59;0.37;;;0.20;;
10469;SDS011;5282;47.052;15.458;2023-05-17T10:21:28;0.20;;;0.20;;
10469;SDS011;5282;47.052;15.458;2023-05-17T10:23:56;0.20;;;0.20;;
10469;SDS011;5282;47.052;15.458;2023-05-17T10:26:25;0.23;;;0.23;;
10469;SDS011;5282;47.052;15.458;2023-05-17T10:28:54;0.50;;;0.17;;
10469;SDS011;5282;47.052;15.458;2023-05-17T10:31:25;0.57;;;0.20;;
10469;SDS011;5282;47.052;15.458;2023-05-17T10:33:54;0.50;;;0.27;;
10469;SDS011;5282;47.052;15.458;2023-05-17T10:36:23;0.67;;;0.30;;
10469;SDS011;5282;47.052;15.458;2023-05-17T10:38:50;0.20;;;0.20;;
10469;SDS011;5282;47.052;15.458;2023-05-17T10:41:18;0.20;;;0.20;;
10469;SDS011;5282;47.052;15.458;2023-05-17T10:43:48;0.20;;;0.20;;
10469;SDS011;5282;47.052;15.458;2023-05-17T10:46:18;0.10;;;0.10;;
10469;SDS011;5282;47.052;15.458;2023-05-17T10:48:46;0.30;;;0.30;;
10469;SDS011;5282;47.052;15.458;2023-05-17T10:51:17;0.37;;;0.20;;
10469;SDS011;5282;47.052;15.458;2023-05-17T10:54:06;0.53;;;0.30;;
10469;SDS011;5282;47.052;15.458;2023-05-17T10:56:34;0.37;;;0.37;;
10469;SDS011;5282;47.052;15.458;2023-05-17T10:59:14;0.30;;;0.30;;
10469;SDS011;5282;47.052;15.458;2023-05-17T11:01:50;0.20;;;0.20;;
10469;SDS011;5282;47.052;15.458;2023-05-17T11:04:19;0.20;;;0.20;;
10469;SDS011;5282;47.052;15.458;2023-05-17T11:06:48;0.27;;;0.27;;
10469;SDS011;5282;47.052;15.458;2023-05-17T11:09:17;0.20;;;0.20;;
10469;SDS011;5282;47.052;15.458;2023-05-17T11:12:02;0.20;;;0.20;;
10469;SDS011;5282;47.052;15.458;2023-05-17T11:17:24;0.30;;;0.30;;
10469;SDS011;5282;47.052;15.458;2023-05-17T11:20:00;0.20;;;0.20;;
10469;SDS011;5282;47.052;15.458;2023-05-17T11:22:34;0.77;;;0.20;;
10469;SDS011;5282;47.052;15.458;2023-05-17T11:25:05;0.30;;;0.20;;
10469;SDS011;5282;47.052;15.458;2023-05-17T11:27:37;0.40;;;0.40;;
10469;SDS011;5282;47.052;15.458;2023-05-17T11:32:56;0.20;;;0.20;;
10469;SDS011;5282;47.052;15.458;2023-05-17T11:35:25;0.20;;;0.20;;
10469;SDS011;5282;47.052;15.458;2023-05-17T11:37:53;0.20;;;0.20;;
10469;SDS011;5282;47.052;15.458;2023-05-17T11:40:39;0.20;;;0.20;;
10469;SDS011;5282;47.052;15.458;2023-05-17T11:43:10;0.20;;;0.20;;
10469;SDS011;5282;47.052;15.458;2023-05-17T11:45:41;0.10;;;0.10;;
10469;SDS011;5282;47.052;15.458;2023-05-17T11:48:11;0.20;;;0.20;;
10469;SDS011;5282;47.052;15.458;2023-05-17T11:50:38;0.20;;;0.20;;
10469;SDS011;5282;47.052;15.458;2023-05-17T11:53:06;0.10;;;0.10;;
10469;SDS011;5282;47.052;15.458;2023-05-17T11:55:36;0.30;;;0.20;;
10469;SDS011;5282;47.052;15.458;2023-05-17T11:58:05;0.60;;;0.40;;
10469;SDS011;5282;47.052;15.458;2023-05-17T12:00:33;0.20;;;0.20;;
10469;SDS011;5282;47.052;15.458;2023-05-17T12:03:17;0.20;;;0.20;;
10469;SDS011;5282;47.052;15.458;2023-05-17T12:05:47;0.30;;;0.30;;
10469;SDS011;5282;47.052;15.458;2023-05-17T12:08:16;0.20;;;0.20;;
10469;SDS011;5282;47.052;15.458;2023-05-17T12:10:48;0.30;;;0.30;;
10469;SDS011;5282;47.052;15.458;2023-05-17T12:13:16;2.07;;;0.30;;
10469;SDS011;5282;47.052;15.458;2023-05-17T12:15:44;0.27;;;0.27;;
10469;SDS011;5282;47.052;15.458;2023-05-17T12:18:13;0.30;;;0.30;;
10469;SDS011;5282;47.052;15.458;2023-05-17T12:20:55;0.33;;;0.33;;
10469;SDS011;5282;47.052;15.458;2023-05-17T12:23:30;0.10;;;0.10;;
10469;SDS011;5282;47.052;15.458;2023-05-17T12:26:04;0.13;;;0.13;;
10469;SDS011;5282;47.052;15.458;2023-05-17T12:28:33;0.33;;;0.20;;
10469;SDS011;5282;47.052;15.458;2023-05-17T12:31:00;0.77;;;0.20;;
10469;SDS011;5282;47.052;15.458;2023-05-17T12:33:29;0.30;;;0.30;;
10469;SDS011;5282;47.052;15.458;2023-05-17T12:35:59;0.30;;;0.30;;
10469;SDS011;5282;47.052;15.458;2023-05-17T12:38:27;0.60;;;0.30;;
10469;SDS011;5282;47.052;15.458;2023-05-17T12:40:56;0.30;;;0.30;;
10469;SDS011;5282;47.052;15.458;2023-05-17T12:43:24;0.20;;;0.20;;
10469;SDS011;5282;47.052;15.458;2023-05-17T12:45:52;0.30;;;0.30;;
10469;SDS011;5282;47.052;15.458;2023-05-17T12:48:22;0.20;;;0.20;;
10469;SDS011;5282;47.052;15.458;2023-05-17T12:50:51;0.30;;;0.30;;
10469;SDS011;5282;47.052;15.458;2023-05-17T12:53:21;0.30;;;0.30;;
10469;SDS011;5282;47.052;15.458;2023-05-17T12:55:49;0.40;;;0.40;;
10469;SDS011;5282;47.052;15.458;2023-05-17T12:58:16;0.30;;;0.30;;
10469;SDS011;5282;47.052;15.458;2023-05-17T13:00:55;0.57;;;0.30;;
10469;SDS011;5282;47.052;15.458;2023-05-17T13:03:23;0.37;;;0.23;;
10469;SDS011;5282;47.052;15.458;2023-05-17T13:08:35;0.50;;;0.50;;
10469;SDS011;5282;47.052;15.458;2023-05-17T13:11:09;0.50;;;0.50;;
10469;SDS011;5282;47.052;15.458;2023-05-17T13:13:38;0.87;;;0.87;;
10469;SDS011;5282;47.052;15.458;2023-05-17T13:16:06;0.50;;;0.50;;
10469;SDS011;5282;47.052;15.458;2023-05-17T13:18:46;0.40;;;0.40;;
10469;SDS011;5282;47.052;15.458;2023-05-17T13:21:14;0.40;;;0.40;;
10469;SDS011;5282;47.052;15.458;2023-05-17T13:23:49;0.70;;;0.70;;
10469;SDS011;5282;47.052;15.458;2023-05-17T13:26:18;1.10;;;1.00;;
10469;SDS011;5282;47.052;15.458;2023-05-17T13:28:45;0.77;;;0.77;;
10469;SDS011;5282;47.052;15.458;2023-05-17T13:31:13;0.50;;;0.50;;
10469;SDS011;5282;47.052;15.458;2023-05-17T13:33:40;0.50;;;0.50;;
10469;SDS011;5282;47.052;15.458;2023-05-17T13:36:09;0.40;;;0.30;;
10469;SDS011;5282;47.052;15.458;2023-05-17T13:38:36;2.77;;;0.67;;
10469;SDS011;5282;47.052;15.458;2023-05-17T13:41:04;0.40;;;0.40;;
10469;SDS011;5282;47.052;15.458;2023-05-17T13:43:33;0.30;;;0.30;;
10469;SDS011;5282;47.052;15.458;2023-05-17T13:46:00;0.40;;;0.40;;
10469;SDS011;5282;47.052;15.458;2023-05-17T13:48:28;0.50;;;0.50;;
10469;SDS011;5282;47.052;15.458;2023-05-17T13:50:55;0.40;;;0.40;;
10469;SDS011;5282;47.052;15.458;2023-05-17T13:53:22;0.20;;;0.20;;
10469;SDS011;5282;47.052;15.458;2023-05-17T13:55:49;0.30;;;0.30;;
10469;SDS011;5282;47.052;15.458;2023-05-17T13:58:17;0.40;;;0.40;;
10469;SDS011;5282;47.052;15.458;2023-05-17T14:00:44;1.40;;;0.33;;
10469;SDS011;5282;47.052;15.458;2023-05-17T14:03:11;0.30;;;0.30;;
10469;SDS011;5282;47.052;15.458;2023-05-17T14:05:39;0.40;;;0.40;;
10469;SDS011;5282;47.052;15.458;2023-05-17T14:08:06;0.20;;;0.20;;
10469;SDS011;5282;47.052;15.458;2023-05-17T14:10:33;0.40;;;0.40;;
10469;SDS011;5282;47.052;15.458;2023-05-17T14:13:00;1.00;;;0.30;;
10469;SDS011;5282;47.052;15.458;2023-05-17T14:15:29;2.93;;;0.33;;
10469;SDS011;5282;47.052;15.458;2023-05-17T14:17:56;0.30;;;0.30;;
10469;SDS011;5282;47.052;15.458;2023-05-17T14:20:23;0.40;;;0.40;;
10469;SDS011;5282;47.052;15.458;2023-05-17T14:22:50;0.47;;;0.47;;
10469;SDS011;5282;47.052;15.458;2023-05-17T14:25:17;0.73;;;0.30;;
10469;SDS011;5282;47.052;15.458;2023-05-17T14:27:45;0.40;;;0.40;;
10469;SDS011;5282;47.052;15.458;2023-05-17T14:30:12;0.53;;;0.53;;
10469;SDS011;5282;47.052;15.458;2023-05-17T14:32:41;0.50;;;0.50;;
10469;SDS011;5282;47.052;15.458;2023-05-17T14:35:08;0.40;;;0.40;;
10469;SDS011;5282;47.052;15.458;2023-05-17T14:37:37;0.30;;;0.30;;
10469;SDS011;5282;47.052;15.458;2023-05-17T14:40:05;0.50;;;0.50;;
10469;SDS011;5282;47.052;15.458;2023-05-17T14:42:32;0.47;;;0.47;;
10469;SDS011;5282;47.052;15.458;2023-05-17T14:44:59;0.50;;;0.50;;
10469;SDS011;5282;47.052;15.458;2023-05-17T14:47:27;0.57;;;0.50;;
10469;SDS011;5282;47.052;15.458;2023-05-17T14:49:55;0.40;;;0.40;;
10469;SDS011;5282;47.052;15.458;2023-05-17T14:52:22;0.50;;;0.50;;
10469;SDS011;5282;47.052;15.458;2023-05-17T14:54:49;0.60;;;0.60;;
10469;SDS011;5282;47.052;15.458;2023-05-17T14:57:16;0.60;;;0.60;;
10469;SDS011;5282;47.052;15.458;2023-05-17T14:59:44;0.60;;;0.60;;
10469;SDS011;5282;47.052;15.458;2023-05-17T15:02:11;0.50;;;0.50;;
10469;SDS011;5282;47.052;15.458;2023-05-17T15:04:38;0.50;;;0.50;;